Flight Track Log - Related Links

Times and Time Zones

All times are in EDT time to prevent confusion due to time zone crossing. See the N738NR flight status page for this flight to view local times or setup timezone preferences in your user account.

Time Position Orientation Groundspeed Altitude Reporting Facility
EDT Latitude Longitude Course Direction KTS MPH feet Rate Location/Type
Tue 06:40:13 AM 45.4578 -73.7686 189° South 424 488 1,400  Level Boston Center
Tue 06:40:49 AM 45.4167 -73.8000 208° Southwest 200 230 3,200 3,125 Climbing Montreal Center
Tue 06:41:49 AM 45.3667 -73.8500 215° Southwest 240 276 6,400 3,150 Climbing Montreal Center
Tue 06:42:00 AM 45.1934 -73.9378 205° Southwest  Level FlightAware Approximate
Tue 06:42:49 AM 45.3000 -73.8667 190° South 250 288 9,500  Level Montreal Center
Tue 06:43:00 AM 45.0983 -74.0013 207° Southwest  Level FlightAware Approximate
Tue 06:43:49 AM 45.2167 -73.9000 196° South 280 322 12,000  Level Montreal Center
Tue 06:44:00 AM 45.0044 -74.0683 207° Southwest  Level FlightAware Approximate
Tue 06:44:49 AM 45.1333 -73.9333 196° South 310 357 14,200  Level Montreal Center
Tue 06:45:00 AM 44.9198 -74.0898 189° South  Level FlightAware Approximate
Tue 06:45:49 AM 45.0500 -73.9500 188° South 320 368 16,500  Level Montreal Center
Tue 06:46:49 AM 44.9500 -73.9333 173° South 340 391 18,400 2,300 Climbing Montreal Center
Tue 06:47:49 AM 44.8500 -73.9333 180° South 340 391 21,100 2,571 Climbing Montreal Center
Tue 06:48:13 AM 44.8328 -73.9417 199° South 350 403 22,000 2,357 Climbing Boston Center
Tue 06:49:13 AM 44.7369 -73.9364 178° South 344 396 24,400 2,050 Climbing Boston Center
Tue 06:50:13 AM 44.6392 -73.9281 177° South 344 396 26,100 1,488 Climbing Boston Center
Tue 06:51:14 AM 44.5414 -73.9225 178° South 372 428 27,400 942 Climbing Boston Center
Tue 06:52:14 AM 44.4164 -73.9167 178° South 388 447 28,000 303 Climbing Boston Center
Tue 06:53:13 AM 44.3042 -73.9081 177° South 431 496 28,000  Level Boston Center
Tue 06:54:13 AM 44.1769 -73.9019 178° South 453 521 28,000  Level Boston Center
Tue 06:55:13 AM 44.0481 -73.8900 176° South 464 534 28,000  Level Boston Center
Tue 06:56:14 AM 43.9022 -73.8778 177° South 464 534 28,000  Level Boston Center
Tue 06:57:37 AM 43.7461 -73.8683 177° South 475 547 28,000  Level Boston Center
Tue 06:58:38 AM 43.6025 -73.8594 177° South 475 547 28,000 -200 Level Boston Center
Tue 06:59:37 AM 43.4711 -73.8533 178° South 475 547 27,600 -1,059 Descending Boston Center
Tue 07:00:37 AM 43.3256 -73.8414 177° South 475 547 25,900 -1,750 Descending Boston Center
Tue 07:01:37 AM 43.2006 -73.8328 177° South 469 540 24,100 -1,140 Descending Boston Center
Tue 07:02:38 AM 43.0817 -73.8272 178° South 449 517 23,600 -750 Descending Boston Center
Tue 07:03:37 AM 42.9589 -73.8217 178° South 443 510 22,600 -1,050 Descending Boston Center
Tue 07:04:38 AM 42.8381 -73.8106 176° South 443 510 21,500 -992 Descending Boston Center
Tue 07:05:38 AM 42.7194 -73.8022 177° South 436 502 20,600 -1,008 Descending Boston Center
Tue 07:06:37 AM 42.6008 -73.7800 172° South 436 502 19,500 -1,050 Descending Boston Center
Tue 07:07:38 AM 42.4928 -73.7522 169° South 417 480 18,500 -750 Descending Boston Center
Tue 07:08:37 AM 42.3847 -73.7331 173° South 404 465 18,000 -250 Descending Boston Center
Tue 07:09:38 AM 42.2742 -73.7419 183° South 395 455 18,000  Level Boston Center
Tue 07:10:38 AM 42.1656 -73.7481 182° South 401 461 18,000  Level Boston Center
Tue 07:11:38 AM 42.0550 -73.7569 183° South 401 461 18,000  Level Boston Center
Tue 07:12:38 AM 41.9489 -73.7633 183° South 396 456 18,000 -202 Level Boston Center
Tue 07:13:37 AM 41.8403 -73.7692 182° South 396 456 17,600 -1,100 Descending Boston Center
Tue 07:14:38 AM 41.7422 -73.7756 183° South 379 436 15,800 -1,950 Descending Boston Center
Tue 07:15:37 AM 41.6442 -73.7819 183° South 358 412 13,700 -2,059 Descending Boston Center
Tue 07:16:20 AM 41.5667 -73.7833 181° South 342 394 12,300 -1,864 Descending New York TRACON
Tue 07:17:20 AM 41.4833 -73.7833 180° South 314 361 10,500 -1,461 Descending New York TRACON
Tue 07:18:15 AM 41.4167 -73.8000 191° South 289 333 9,500 -1,043 Descending New York TRACON
Tue 07:19:15 AM 41.3333 -73.7833 171° South 276 318 8,500 -1,000 Descending New York TRACON
Tue 07:20:09 AM 41.2833 -73.7333 143° Southeast 272 313 7,600 -1,000 Descending New York TRACON
Tue 07:21:09 AM 41.2167 -73.6833 151° Southeast 264 304 6,600 -1,050 Descending New York TRACON
Tue 07:22:09 AM 41.1667 -73.6333 143° Southeast 262 302 5,500 -1,100 Descending New York TRACON
Tue 07:23:09 AM 41.1000 -73.6167 169° South 264 304 4,400 -789 Descending New York TRACON
Tue 07:24:03 AM 41.0333 -73.6500 201° Southwest 262 302 4,000 -211 Descending New York TRACON
Tue 07:25:03 AM 41.0000 -73.7333 242° Southwest 266 306 4,000  Level New York TRACON
Tue 07:26:03 AM 40.9667 -73.8167 242° Southwest 259 298 4,000  Level New York TRACON
Tue 07:26:57 AM 40.9167 -73.8833 225° Southwest 260 299 4,000  Level New York TRACON
Tue 07:27:57 AM 40.8667 -73.9500 225° Southwest 259 298 4,000 -263 Level New York TRACON
Tue 07:28:51 AM 40.8167 -73.9833 207° Southwest 250 288 3,500 -556 Descending New York TRACON
Tue 07:29:45 AM 40.7500 -74.0167 201° Southwest 253 291 3,000 -263 Descending New York TRACON
Tue 07:30:45 AM 40.6833 -74.0500 201° Southwest 258 297 3,000  Level New York TRACON

Login

Don't have an account? Register now (free) for customized features, flight alerts, and more!